Startpagina
METAR-TAF:

METAR-TAF

Vliegvelden :

Flughafen Münster-Osnabrück

Münster-Osnabrück, Duitsland

breedte: 52-08N, lengte: 007-42E, hoogte: 48 m

Actueel weer

Dit bericht is 20 minuten geleden gemaakt, om 21:20 UTC
Wind 1 kt uit variabele richting
Temperatuur 20°C
Vochtigheid 60%
Druk 1013 hPa
Zicht 10 km of meer
geen wolken onder 1500 m en geen cumulonimbus

METAR: EDDG 162120Z VRB01KT CAVOK 20/12 Q1013 NOSIG

Tijdstip: 23:40 (21:40 UTC)

Verwachting

Dit bericht is 4 uur en het 40 minuten geleden gemaakt, om 17:00 UTC
Verwachting geldig van 16 om 18 UTC tot 17 om 18 UTC
Wind 7 kt uit het noorden
Zicht 10 km of meer
geen wolken onder 1500 m en geen cumulonimbus
Wijzigt naar
van 16 om 18 UTC tot 16 om 21 UTC
Wind 3 kt uit variabele richting
Wijzigt naar
van 17 om 09 UTC tot 17 om 12 UTC
Wind 8 kt uit het westen

TAF: EDDG 161700Z 1618/1718 01007KT CAVOK BECMG 1618/1621 VRB03KT BECMG 1709/1712 26008KT

Waarnemingen en weersverwachtingen van meer dan 4000 vliegvelden (METAR en TAF).

De beschikbare stations zijn de gele en rode punten op de kaart.

Ga met uw muis naar het station om de naam te zien.

Klik dan om waarnemingen en weersverwachtingen te zien.

kaart wijzigen: klik op de groene knoppen met een zwart kruis om in te zoomen, op de groene knop met een streepje om uit te zoomen of op de groene pijlen voor aangrenzende kaarten.


METAR-TAF: